KRDG/RDG METAR and TAF weather

Enter ICAO airport designator
Station Type Date Time Source
KRDG METAR 2019/05/23 18:54 UTC NOAA

KRDG 231854Z 22005KT 10SM R36/5000VP6000FT FEW022 SCT060 22/18 A3004 RMK AO2 LTG DSNT NE RAB44E54 TSB47E54 SLP174 P0007 T02220178


Station Type Date Time Source
KRDG Decoded METAR 2019/05/23 18:54 UTC NOAA

READING REGIONAL AIRPORT, PA, United States (KRDG) 40-22N 075-58W 109M
May 23, 2019 - 02:54 PM EDT / 2019.05.23 1854 UTC
Wind: from the SW (220 degrees) at 6 MPH (5 KT):0
Visibility: 10 mile(s):0
Sky conditions: partly cloudy
Weather: Lightning observed
Precipitation last hour: 0.07 inches
Temperature: 72.0 F (22.2 C)
Dew Point: 64.0 F (17.8 C)
Relative Humidity: 76%
Pressure (altimeter): 30.04 in. Hg (1017 hPa)
ob: KRDG 231854Z 22005KT 10SM R36/5000VP6000FT FEW022 SCT060 22/18 A3004 RMK AO2 LTG DSNT NE RAB44E54 TSB47E54 SLP174 P0007 T02220178
cycle: 19

Station Type Date Time Source
KRDG TAF 2019/05/23 18:22 UTC NOAA

TAF KRDG 231720Z 2318/2418 21011KT P6SM VCTS BKN050CB
TEMPO 2318/2321 VRB20G30KT 3SM TSRA BKN030CB
FM232200 22008KT P6SM VCTS OVC050CB
FM240200 25010KT P6SM SCT200
FM240600 29009KT P6SM FEW200
FM241400 31012G20KT P6SM FEW250

Example: see airport list